createdAt,value
2018-11-25T00:02:24.369Z,99035.50
2018-11-25T00:04:54.716Z,99041.09
2018-11-25T00:07:25.062Z,99046.42
2018-11-25T00:09:55.305Z,99036.98
2018-11-25T00:12:25.705Z,99030.55
2018-11-25T00:14:56.301Z,99030.05
2018-11-25T00:17:26.335Z,99025.59
2018-11-25T00:19:56.261Z,99031.36
2018-11-25T00:22:26.394Z,99033.73
2018-11-25T00:24:57.681Z,99031.02
2018-11-25T00:27:27.261Z,99037.30
2018-11-25T00:29:57.194Z,99034.85
2018-11-25T00:32:27.501Z,99027.48
2018-11-25T00:34:57.293Z,99024.66
2018-11-25T00:37:27.932Z,99021.92
2018-11-25T00:39:58.113Z,99024.13
2018-11-25T00:42:28.531Z,99028.72
2018-11-25T00:44:58.079Z,99029.11
2018-11-25T00:47:28.080Z,99034.80
2018-11-25T00:49:58.372Z,99023.11
2018-11-25T00:52:28.663Z,99023.27
2018-11-25T00:54:59.727Z,99024.38
2018-11-25T00:57:29.291Z,99024.97
2018-11-25T00:59:59.914Z,99026.48
2018-11-25T01:02:30.132Z,99039.11
2018-11-25T01:04:59.983Z,99025.47
2018-11-25T01:07:32.523Z,99025.68
2018-11-25T01:10:02.352Z,99025.53
2018-11-25T01:12:32.169Z,99021.92
2018-11-25T01:15:02.126Z,99017.48
2018-11-25T01:17:32.577Z,98961.15
2018-11-25T01:20:02.270Z,98990.43
2018-11-25T01:22:33.256Z,99002.95
2018-11-25T01:25:03.421Z,99002.35
2018-11-25T01:27:33.270Z,99008.69
2018-11-25T01:30:03.661Z,99011.16
2018-11-25T01:32:33.901Z,99012.27
2018-11-25T01:35:04.097Z,99005.81
2018-11-25T01:37:34.897Z,98999.69
2018-11-25T01:40:05.547Z,99000.34
2018-11-25T01:42:36.380Z,98997.81
2018-11-25T01:45:07.169Z,98998.38
2018-11-25T01:47:37.193Z,98998.32
2018-11-25T01:50:08.452Z,98993.00
2018-11-25T01:52:38.344Z,98987.36
2018-11-25T01:55:10.888Z,98982.75
2018-11-25T01:57:40.859Z,98980.63
2018-11-25T02:00:15.175Z,98981.88
2018-11-25T02:02:45.097Z,98986.10
2018-11-25T02:05:16.509Z,98983.39
2018-11-25T02:07:46.840Z,98981.48
2018-11-25T02:10:17.543Z,98986.61
2018-11-25T02:12:47.250Z,98989.22
2018-11-25T02:15:17.589Z,98985.52
2018-11-25T02:17:47.710Z,98988.38
2018-11-25T02:20:25.034Z,98982.44
2018-11-25T02:22:56.444Z,98977.06
2018-11-25T02:25:28.675Z,98974.55
2018-11-25T02:27:58.991Z,98981.88
2018-11-25T02:30:28.916Z,98969.70
2018-11-25T02:32:58.973Z,98971.91
2018-11-25T02:35:28.500Z,98975.06
2018-11-25T02:37:58.693Z,98969.88
2018-11-25T02:40:28.392Z,98975.36
2018-11-25T02:42:58.671Z,98971.69
2018-11-25T02:45:28.830Z,98967.67
2018-11-25T02:47:58.966Z,98975.50
2018-11-25T02:50:30.046Z,98965.59
2018-11-25T02:53:04.481Z,98972.92
2018-11-25T02:55:34.228Z,98975.63
2018-11-25T02:58:04.677Z,98969.41
2018-11-25T03:00:34.500Z,98965.59
2018-11-25T03:03:04.943Z,98964.85
2018-11-25T03:05:34.833Z,98959.46
2018-11-25T03:08:04.620Z,98953.73
2018-11-25T03:10:35.695Z,98948.31
2018-11-25T03:13:05.532Z,98943.96
2018-11-25T03:15:35.508Z,98942.48
2018-11-25T03:18:06.012Z,98947.67
2018-11-25T03:20:35.794Z,98944.29
2018-11-25T03:23:06.691Z,98947.23
2018-11-25T03:25:37.091Z,98953.88
2018-11-25T03:28:06.989Z,98956.29
2018-11-25T03:30:37.772Z,98949.69
2018-11-25T03:33:08.701Z,98951.89
2018-11-25T03:35:38.378Z,98952.39
2018-11-25T03:38:08.156Z,98945.98
2018-11-25T03:40:39.193Z,98945.58
2018-11-25T03:43:09.208Z,98941.44
2018-11-25T03:45:39.813Z,98939.45
2018-11-25T03:48:10.058Z,98937.95
2018-11-25T03:50:39.889Z,98927.58
2018-11-25T03:53:10.981Z,98928.48
2018-11-25T03:55:40.701Z,98923.06
2018-11-25T03:58:10.949Z,98924.88
2018-11-25T04:00:40.773Z,98930.97
2018-11-25T04:03:11.050Z,98930.77
2018-11-25T04:05:40.822Z,98935.98
2018-11-25T04:08:10.363Z,98936.98
2018-11-25T04:10:40.420Z,98953.73
2018-11-25T04:13:11.766Z,98961.26
2018-11-25T04:15:41.939Z,98963.92
2018-11-25T04:18:11.884Z,98958.70
2018-11-25T04:20:41.874Z,98954.28
2018-11-25T04:23:11.923Z,98956.09
2018-11-25T04:25:41.892Z,98965.03
2018-11-25T04:28:11.689Z,98956.09
2018-11-25T04:30:41.413Z,98947.38
2018-11-25T04:33:14.539Z,98951.38
2018-11-25T04:35:44.358Z,98942.86
2018-11-25T04:38:14.021Z,98951.80
2018-11-25T04:40:45.342Z,98948.19
2018-11-25T04:43:15.289Z,98944.97
2018-11-25T04:45:45.156Z,98945.45
2018-11-25T04:48:15.333Z,98928.64
2018-11-25T04:50:45.310Z,98945.92
2018-11-25T04:53:15.111Z,98947.94
2018-11-25T04:55:45.268Z,98951.34
2018-11-25T04:58:15.080Z,98940.27
2018-11-25T05:00:45.093Z,98938.67
2018-11-25T05:03:14.807Z,98950.11
2018-11-25T05:05:44.708Z,98947.58
2018-11-25T05:08:15.166Z,98943.66
2018-11-25T05:10:44.941Z,98929.96
2018-11-25T05:13:15.649Z,98945.13
2018-11-25T05:15:45.716Z,98936.80
2018-11-25T05:18:15.445Z,98934.79
2018-11-25T05:20:45.422Z,98939.11
2018-11-25T05:23:15.659Z,98936.80
2018-11-25T05:25:45.237Z,98936.00
2018-11-25T05:28:15.103Z,98937.60
2018-11-25T05:30:45.263Z,98939.11
2018-11-25T05:33:16.155Z,98933.08
2018-11-25T05:35:46.163Z,98928.66
2018-11-25T05:38:16.761Z,98933.62
2018-11-25T05:40:46.958Z,98938.84
2018-11-25T05:43:18.530Z,98933.31
2018-11-25T05:45:48.919Z,98947.88
2018-11-25T05:48:19.175Z,98940.05
2018-11-25T05:50:48.921Z,98937.63
2018-11-25T05:53:19.231Z,98932.61
2018-11-25T05:55:49.122Z,98932.61
2018-11-25T05:58:19.197Z,98935.76
2018-11-25T06:00:48.878Z,98936.83
2018-11-25T06:03:20.051Z,98933.05
2018-11-25T06:05:49.984Z,98940.53
2018-11-25T06:08:20.278Z,98933.53
2018-11-25T06:10:51.186Z,98936.02
2018-11-25T06:13:21.685Z,98939.13
2018-11-25T06:15:52.385Z,98936.14
2018-11-25T06:18:22.252Z,98944.27
2018-11-25T06:20:52.362Z,98948.09
2018-11-25T06:23:22.970Z,98947.71
2018-11-25T06:25:53.635Z,98948.71
2018-11-25T06:28:23.596Z,98945.00
2018-11-25T06:30:53.422Z,98949.31
2018-11-25T06:33:23.286Z,98949.23
2018-11-25T06:35:53.668Z,98953.27
2018-11-25T06:38:24.841Z,98945.04
2018-11-25T06:40:55.052Z,98942.23
2018-11-25T06:43:25.491Z,98945.95
2018-11-25T06:45:55.460Z,98942.03
2018-11-25T06:48:26.318Z,98953.47
2018-11-25T06:50:56.030Z,98945.14
2018-11-25T06:53:27.214Z,98957.56
2018-11-25T06:55:57.375Z,98837.94
2018-11-25T06:58:27.493Z,98958.37
2018-11-25T07:00:58.327Z,98952.24
2018-11-25T07:03:28.489Z,98960.66
2018-11-25T07:05:58.437Z,98965.55
2018-11-25T07:08:28.746Z,98959.53
2018-11-25T07:10:58.860Z,98955.48
2018-11-25T07:13:29.613Z,98864.08
2018-11-25T07:16:02.882Z,98957.67
2018-11-25T07:18:33.465Z,98974.64
2018-11-25T07:21:03.281Z,98888.56
2018-11-25T07:23:33.704Z,98989.88
2018-11-25T07:26:03.397Z,98983.95
2018-11-25T07:28:33.091Z,98977.59
2018-11-25T07:31:03.652Z,98985.16
2018-11-25T07:33:33.709Z,98987.21
2018-11-25T07:36:04.138Z,98985.70
2018-11-25T07:38:34.254Z,98986.19
2018-11-25T07:41:03.886Z,98981.94
2018-11-25T07:43:33.777Z,98998.09
2018-11-25T07:46:03.916Z,98979.91
2018-11-25T07:48:33.622Z,98980.91
2018-11-25T07:51:05.409Z,98987.41
2018-11-25T07:53:36.515Z,98976.06
2018-11-25T07:56:07.455Z,98967.70
2018-11-25T07:58:37.828Z,98964.55
2018-11-25T08:01:09.141Z,98962.84
2018-11-25T08:03:39.200Z,98959.30
2018-11-25T08:06:10.256Z,98959.26
2018-11-25T08:10:04.287Z,98959.16
2018-11-25T08:12:34.522Z,98954.93
2018-11-25T08:15:05.188Z,98953.02
2018-11-25T08:17:35.809Z,98959.22
2018-11-25T08:20:08.271Z,98952.09
2018-11-25T08:22:38.568Z,98950.66
2018-11-25T08:25:12.780Z,98955.55
2018-11-25T08:27:44.249Z,98956.28
2018-11-25T08:30:17.982Z,98894.56
2018-11-25T08:32:48.361Z,98959.56
2018-11-25T08:35:20.173Z,98965.86
2018-11-25T08:37:51.829Z,98970.95
2018-11-25T08:40:24.286Z,98968.86
2018-11-25T08:42:55.514Z,98965.97
2018-11-25T08:45:25.598Z,98966.54
2018-11-25T08:47:57.863Z,98962.63
2018-11-25T08:50:28.225Z,98957.95
2018-11-25T08:56:32.920Z,98954.81
2018-11-25T08:59:03.460Z,98933.59
2018-11-25T09:01:35.825Z,98967.47
2018-11-25T09:04:08.236Z,98963.63
2018-11-25T09:06:38.639Z,98959.78
2018-11-25T09:09:10.185Z,98957.52
2018-11-25T09:11:57.218Z,98956.05
2018-11-25T09:14:31.468Z,98907.50
2018-11-25T09:17:02.876Z,98970.95
2018-11-25T09:19:33.810Z,98969.52
2018-11-25T09:22:07.566Z,98953.00
2018-11-25T09:24:42.235Z,98948.64
2018-11-25T09:27:20.778Z,98951.98
2018-11-25T09:30:11.801Z,98958.47
2018-11-25T09:32:57.016Z,98813.48
2018-11-25T09:35:43.707Z,98953.00
2018-11-25T09:38:36.383Z,98955.67
2018-11-25T09:41:06.766Z,98956.10
2018-11-25T09:43:36.390Z,98960.99
2018-11-25T09:46:07.436Z,98957.36
2018-11-25T09:48:37.477Z,98955.00
2018-11-25T09:51:08.285Z,98961.92
2018-11-25T09:53:38.348Z,98956.90
2018-11-25T09:56:08.497Z,98958.55
2018-11-25T09:58:38.061Z,98948.75
2018-11-25T10:01:08.591Z,98943.76
2018-11-25T10:03:40.194Z,98951.31
2018-11-25T10:06:13.908Z,98948.92
2018-11-25T10:08:44.371Z,98945.73
2018-11-25T10:11:18.045Z,98949.87
2018-11-25T10:13:48.288Z,98883.38
2018-11-25T10:16:19.602Z,98938.45
2018-11-25T10:18:50.388Z,98939.11
2018-11-25T10:21:21.278Z,98937.12
2018-11-25T10:23:54.238Z,98930.48
2018-11-25T10:26:28.410Z,98933.44
2018-11-25T10:29:04.119Z,98933.89
2018-11-25T10:31:36.967Z,98926.27
2018-11-25T10:34:15.237Z,98893.66
2018-11-25T10:36:46.783Z,98854.39
2018-11-25T10:39:37.664Z,98928.78
2018-11-25T10:42:10.159Z,98925.30
2018-11-25T10:44:41.711Z,98925.05
2018-11-25T10:47:11.458Z,98923.02
2018-11-25T10:49:44.198Z,98918.23
2018-11-25T10:52:16.511Z,98917.67
2018-11-25T10:54:47.267Z,98908.64
2018-11-25T10:57:20.257Z,98843.45
2018-11-25T10:59:54.017Z,98912.04
2018-11-25T11:02:31.035Z,98911.25
2018-11-25T11:05:07.106Z,98912.97
2018-11-25T11:07:44.416Z,98911.19
2018-11-25T11:10:16.148Z,98913.59
2018-11-25T11:12:47.787Z,98826.42
2018-11-25T11:15:19.151Z,98906.13
2018-11-25T11:17:49.198Z,98830.65
2018-11-25T11:20:19.601Z,98900.07
2018-11-25T11:22:51.424Z,98833.02
2018-11-25T11:25:21.044Z,98898.36
2018-11-25T11:27:50.797Z,98899.22
2018-11-25T11:30:20.745Z,98896.94
2018-11-25T11:32:56.075Z,98894.50
2018-11-25T11:35:28.925Z,98887.47
2018-11-25T11:38:01.448Z,98813.93
2018-11-25T11:40:34.766Z,98888.47
2018-11-25T11:43:06.728Z,98888.84
2018-11-25T11:45:36.777Z,98890.30
2018-11-25T11:48:08.164Z,98887.75
2018-11-25T11:50:38.505Z,98885.77
2018-11-25T11:53:08.722Z,98882.97
2018-11-25T11:55:38.311Z,98884.02
2018-11-25T11:58:08.745Z,98887.48
2018-11-25T12:00:39.450Z,98886.09
2018-11-25T12:03:10.077Z,98882.97
2018-11-25T12:05:40.317Z,98883.77
2018-11-25T12:08:10.123Z,98893.02
2018-11-25T12:10:39.952Z,98886.18
2018-11-25T12:13:10.279Z,98891.77
2018-11-25T12:15:41.133Z,98886.23
2018-11-25T12:18:11.735Z,98889.06
2018-11-25T12:20:41.548Z,98882.52
2018-11-25T12:23:14.700Z,98885.80
2018-11-25T12:25:44.183Z,98879.69
2018-11-25T12:28:14.190Z,98875.55
2018-11-25T12:30:44.675Z,98871.41
2018-11-25T12:33:15.240Z,98874.66
2018-11-25T12:35:45.469Z,98881.79
2018-11-25T12:38:16.614Z,98877.48
2018-11-25T12:40:46.573Z,98885.69
2018-11-25T12:43:16.892Z,98883.27
2018-11-25T12:45:46.545Z,98880.94
2018-11-25T12:48:16.687Z,98862.15
2018-11-25T12:50:46.442Z,98875.50
2018-11-25T12:53:17.149Z,98874.09
2018-11-25T12:55:47.243Z,98865.55
2018-11-25T12:58:17.766Z,98864.24
2018-11-25T13:00:49.607Z,98864.65
2018-11-25T13:03:22.069Z,98861.05
2018-11-25T13:05:51.975Z,98853.27
2018-11-25T13:08:21.897Z,98850.47
2018-11-25T13:10:52.224Z,98848.60
2018-11-25T13:13:21.824Z,98850.31
2018-11-25T13:15:51.673Z,98847.69
2018-11-25T13:18:21.864Z,98847.22
2018-11-25T13:20:51.935Z,98845.22
2018-11-25T13:24:45.960Z,98840.38
2018-11-25T13:27:16.156Z,98836.04
2018-11-25T13:29:46.474Z,98831.81
2018-11-25T13:32:16.598Z,98748.00
2018-11-25T13:34:47.366Z,98833.27
2018-11-25T13:37:17.762Z,98828.07
2018-11-25T13:39:47.381Z,98833.31
2018-11-25T13:42:18.698Z,98817.58
2018-11-25T13:44:47.419Z,98830.50
2018-11-25T13:47:17.386Z,98836.31
2018-11-25T13:49:47.450Z,98830.78
2018-11-25T13:52:18.683Z,98834.20
2018-11-25T13:54:48.604Z,98828.63
2018-11-25T13:57:19.488Z,98833.75
2018-11-25T13:59:49.794Z,98836.38
2018-11-25T14:02:19.547Z,98843.53
2018-11-25T14:04:49.437Z,98832.42
2018-11-25T14:07:19.236Z,98831.91
2018-11-25T14:09:48.896Z,98830.18
2018-11-25T14:12:18.431Z,98828.63
2018-11-25T14:14:48.237Z,98827.95
2018-11-25T14:19:46.831Z,98826.47
2018-11-25T14:22:17.019Z,98829.38
2018-11-25T14:24:47.726Z,98827.70
2018-11-25T14:27:17.564Z,98830.53
2018-11-25T14:29:48.211Z,98826.05
2018-11-25T14:32:18.669Z,98827.36
2018-11-25T14:34:48.636Z,98826.27
2018-11-25T14:37:18.588Z,98831.34
2018-11-25T14:39:48.696Z,98830.20
2018-11-25T14:42:18.495Z,98831.42
2018-11-25T14:44:53.938Z,98829.85
2018-11-25T14:47:23.945Z,98790.63
2018-11-25T14:49:53.917Z,98830.66
2018-11-25T14:52:24.264Z,98834.34
2018-11-25T14:54:53.929Z,98833.06
2018-11-25T14:57:23.879Z,98831.16
2018-11-25T14:59:54.032Z,98830.17
2018-11-25T15:02:24.138Z,98827.39
2018-11-25T15:04:55.617Z,98834.90
2018-11-25T15:07:25.528Z,98833.75
2018-11-25T15:09:55.555Z,98828.94
2018-11-25T15:12:26.174Z,98827.58
2018-11-25T15:14:56.539Z,98823.66
2018-11-25T15:17:26.959Z,98831.72
2018-11-25T15:19:57.223Z,98828.72
2018-11-25T15:22:27.327Z,98831.70
2018-11-25T15:24:57.510Z,98832.00
2018-11-25T15:27:28.290Z,98828.59
2018-11-25T15:29:58.066Z,98821.54
2018-11-25T15:32:28.401Z,98825.16
2018-11-25T15:34:58.856Z,98823.80
2018-11-25T15:37:31.378Z,98726.63
2018-11-25T15:40:02.166Z,98816.11
2018-11-25T15:42:32.963Z,98811.80
2018-11-25T15:45:02.597Z,98806.78
2018-11-25T15:47:32.479Z,98801.50
2018-11-25T15:50:02.955Z,98803.02
2018-11-25T15:52:32.554Z,98800.27
2018-11-25T15:55:02.354Z,98799.67
2018-11-25T15:57:32.932Z,98797.92
2018-11-25T16:00:11.911Z,98800.53
2018-11-25T16:02:42.478Z,98799.02
2018-11-25T16:05:16.905Z,98797.41
2018-11-25T16:07:47.880Z,98797.56
2018-11-25T16:10:18.156Z,98806.92
2018-11-25T16:12:51.465Z,98798.78
2018-11-25T16:15:23.830Z,98806.56
2018-11-25T16:17:54.118Z,98803.72
2018-11-25T16:20:26.558Z,98809.23
2018-11-25T16:23:00.710Z,98811.55
2018-11-25T16:25:49.534Z,98816.78
2018-11-25T16:28:28.879Z,98815.27
2018-11-25T16:31:00.287Z,98820.49
2018-11-25T16:33:31.040Z,98715.66
2018-11-25T16:36:00.745Z,98814.16
2018-11-25T16:38:31.902Z,98812.36
2018-11-25T16:41:03.013Z,98812.66
2018-11-25T16:43:33.289Z,98810.98
2018-11-25T16:46:03.909Z,98809.39
2018-11-25T16:48:33.618Z,98816.92
2018-11-25T16:51:04.391Z,98816.88
2018-11-25T16:53:37.647Z,98823.20
2018-11-25T16:56:07.558Z,98827.03
2018-11-25T16:58:41.194Z,98821.30
2018-11-25T17:01:13.988Z,98827.68
2018-11-25T17:03:45.852Z,98734.39
2018-11-25T17:06:18.118Z,98821.14
2018-11-25T17:08:50.027Z,98815.41
2018-11-25T17:11:19.776Z,98827.05
2018-11-25T17:13:49.845Z,98830.23
2018-11-25T17:16:19.813Z,98811.94
2018-11-25T17:18:51.441Z,98828.15
2018-11-25T17:21:22.594Z,98826.34
2018-11-25T17:23:53.066Z,98830.41
2018-11-25T17:26:24.765Z,98833.38
2018-11-25T17:28:55.742Z,98829.75
2018-11-25T17:31:25.810Z,98824.02
2018-11-25T17:33:55.517Z,98821.19
2018-11-25T17:36:25.551Z,98816.25
2018-11-25T17:38:55.298Z,98820.89
2018-11-25T17:41:25.090Z,98822.70
2018-11-25T17:43:55.236Z,98825.11
2018-11-25T17:46:24.777Z,98830.39
2018-11-25T17:48:54.709Z,98820.82
2018-11-25T17:51:24.716Z,98825.55
2018-11-25T17:53:54.366Z,98830.27
2018-11-25T17:56:25.900Z,98827.50
2018-11-25T17:58:57.421Z,98831.93
2018-11-25T18:01:27.044Z,98833.18
2018-11-25T18:03:56.646Z,98834.70
2018-11-25T18:06:27.713Z,98833.18
2018-11-25T18:08:57.960Z,98831.00
2018-11-25T18:11:28.147Z,98831.27
2018-11-25T18:13:58.286Z,98836.15
2018-11-25T18:16:28.408Z,98834.84
2018-11-25T18:19:08.445Z,98834.69
2018-11-25T18:21:38.229Z,98837.52
2018-11-25T18:24:07.799Z,98832.38
2018-11-25T18:26:37.366Z,98831.78
2018-11-25T18:29:09.245Z,98830.69
2018-11-25T18:31:39.659Z,98832.95
2018-11-25T18:34:09.307Z,98833.25
2018-11-25T18:36:39.406Z,98831.86
2018-11-25T18:39:11.877Z,98836.14
2018-11-25T18:41:41.652Z,98835.13
2018-11-25T18:44:12.518Z,98838.40
2018-11-25T18:46:47.607Z,98842.53
2018-11-25T18:49:15.479Z,98844.55
2018-11-25T18:51:46.631Z,98844.64
2018-11-25T18:54:18.332Z,98839.11
2018-11-25T18:56:48.283Z,98841.64
2018-11-25T18:59:17.919Z,98840.56
2018-11-25T19:01:54.275Z,98837.06
2018-11-25T19:04:24.775Z,98838.88
2018-11-25T19:06:54.499Z,98839.47
2018-11-25T19:09:24.516Z,98835.84
2018-11-25T19:11:55.147Z,98834.45
2018-11-25T19:14:27.698Z,98833.80
2018-11-25T19:16:57.830Z,98831.09
2018-11-25T19:19:28.282Z,98832.20
2018-11-25T19:21:59.007Z,98830.47
2018-11-25T19:24:28.985Z,98832.13
2018-11-25T19:26:59.523Z,98833.50
2018-11-25T19:29:30.591Z,98839.77
2018-11-25T19:32:00.635Z,98835.97
2018-11-25T19:34:30.894Z,98832.94
2018-11-25T19:37:01.585Z,98827.55
2018-11-25T19:39:32.399Z,98830.32
2018-11-25T19:42:02.918Z,98834.39
2018-11-25T19:44:33.414Z,98838.81
2018-11-25T19:47:04.018Z,98846.56
2018-11-25T19:49:34.084Z,98851.44
2018-11-25T19:52:04.402Z,98852.36
2018-11-25T19:54:35.116Z,98850.99
2018-11-25T19:57:05.176Z,98849.89
2018-11-25T19:59:35.324Z,98850.63
2018-11-25T20:02:05.758Z,98852.00
2018-11-25T20:04:35.837Z,98850.34
2018-11-25T20:07:06.431Z,98852.74
2018-11-25T20:09:36.653Z,98853.16
2018-11-25T20:12:06.921Z,98857.52
2018-11-25T20:14:38.024Z,98868.27
2018-11-25T20:17:12.969Z,98865.92
2018-11-25T20:19:43.874Z,98862.86
2018-11-25T20:22:19.135Z,98860.84
2018-11-25T20:24:49.183Z,98857.87
2018-11-25T20:28:45.376Z,98852.23
2018-11-25T20:31:15.517Z,98845.52
2018-11-25T20:33:52.409Z,98842.41
2018-11-25T20:36:18.213Z,98848.04
2018-11-25T20:38:53.799Z,98844.92
2018-11-25T20:41:24.172Z,98840.64
2018-11-25T20:43:55.120Z,98842.75
2018-11-25T20:46:29.808Z,98843.05
2018-11-25T20:49:00.951Z,98847.17
2018-11-25T20:51:35.462Z,98843.67
2018-11-25T20:54:05.274Z,98852.40
2018-11-25T20:56:35.137Z,98848.04
2018-11-25T20:59:05.252Z,98845.72
2018-11-25T21:01:34.809Z,98849.99
2018-11-25T21:04:05.240Z,98846.28
2018-11-25T21:06:35.466Z,98840.49
2018-11-25T21:09:06.556Z,98808.97
2018-11-25T21:11:36.374Z,98849.43
2018-11-25T21:14:06.165Z,98842.59
2018-11-25T21:16:35.770Z,98843.77
2018-11-25T21:19:05.797Z,98837.83
2018-11-25T21:21:35.411Z,98844.52
2018-11-25T21:24:06.941Z,98843.20
2018-11-25T21:26:37.979Z,98848.13
2018-11-25T21:29:07.573Z,98843.62
2018-11-25T21:31:37.089Z,98847.53
2018-11-25T21:34:08.553Z,98844.72
2018-11-25T21:36:38.169Z,98845.81
2018-11-25T21:39:11.198Z,98841.80
2018-11-25T21:41:40.924Z,98839.94
2018-11-25T21:44:10.717Z,98845.93
2018-11-25T21:46:40.429Z,98842.61
2018-11-25T21:49:12.328Z,98838.62
2018-11-25T21:51:42.621Z,98842.16
2018-11-25T21:54:14.941Z,98841.30
2018-11-25T21:56:45.115Z,98840.49
2018-11-25T21:59:15.399Z,98836.57
2018-11-25T22:01:45.075Z,98834.47
2018-11-25T22:04:15.443Z,98838.68
2018-11-25T22:06:45.503Z,98840.84
2018-11-25T22:09:15.637Z,98834.81
2018-11-25T22:11:45.628Z,98836.69
2018-11-25T22:14:15.888Z,98828.19
2018-11-25T22:16:45.717Z,98832.05
2018-11-25T22:19:15.695Z,98831.15
2018-11-25T22:21:45.455Z,98835.37
2018-11-25T22:24:15.450Z,98842.60
2018-11-25T22:26:45.036Z,98839.28
2018-11-25T22:29:14.789Z,98838.48
2018-11-25T22:31:44.912Z,98836.17
2018-11-25T22:34:15.734Z,98831.09
2018-11-25T22:36:45.632Z,98835.52
2018-11-25T22:39:16.915Z,98839.55
2018-11-25T22:41:46.817Z,98836.67
2018-11-25T22:44:16.462Z,98849.13
2018-11-25T22:46:46.213Z,98847.02
2018-11-25T22:49:16.680Z,98849.83
2018-11-25T22:51:47.370Z,98843.91
2018-11-25T22:54:17.686Z,98845.01
2018-11-25T22:56:48.326Z,98855.79
2018-11-25T22:59:18.253Z,98848.36
2018-11-25T23:01:48.762Z,98848.46
2018-11-25T23:06:35.017Z,98842.38
2018-11-25T23:09:05.845Z,98843.26
2018-11-25T23:11:36.006Z,98842.42
2018-11-25T23:14:06.931Z,98845.83
2018-11-25T23:16:36.740Z,98841.41
2018-11-25T23:19:06.843Z,98839.61
2018-11-25T23:21:36.788Z,98841.08
2018-11-25T23:24:07.333Z,98832.03
2018-11-25T23:26:37.416Z,98829.83
2018-11-25T23:29:08.155Z,98830.73
2018-11-25T23:31:38.738Z,98833.55
2018-11-25T23:34:09.051Z,98835.25
2018-11-25T23:36:39.438Z,98838.56
2018-11-25T23:39:10.153Z,98837.13
2018-11-25T23:41:40.035Z,98832.70
2018-11-25T23:44:11.390Z,98831.05
2018-11-25T23:46:41.253Z,98828.08
2018-11-25T23:49:11.231Z,98833.09
2018-11-25T23:51:41.378Z,98838.38
2018-11-25T23:54:12.497Z,98842.00
2018-11-25T23:56:44.472Z,98841.89
2018-11-25T23:59:15.169Z,98839.09
